Terminal Aerodrome Forecast
Issued by NWS

Home | Current Version | Previous Version | Text Only | Print | Product List | Glossary On
Versions: 1 2 3 4 5 6 7 8 9 10 11 12
000
FTUS44 KOUN 241129
TAFCSM
TAF
KCSM 241129Z 2412/2512 20013KT P6SM SCT250
     FM241700 20015G23KT P6SM SCT250
     FM250000 13007KT P6SM SCT250
     FM250500 03006KT P6SM SCT250
     FM250900 02015G24KT P6SM FEW250=

USA.gov is the U.S. government's official web portal to all federal, state and local government web resources and services.